createdAt,value
2019-01-02T00:09:49.675Z,99796.83
2019-01-02T00:15:14.882Z,99801.59
2019-01-02T00:20:38.188Z,99797.52
2019-01-02T00:26:14.265Z,99795.52
2019-01-02T00:47:32.514Z,99827.03
2019-01-02T00:57:47.118Z,99829.59
2019-01-02T01:02:51.932Z,99843.94
2019-01-02T01:07:57.625Z,99849.42
2019-01-02T01:13:02.193Z,99859.66
2019-01-02T01:18:06.805Z,99875.50
2019-01-02T01:29:00.846Z,99881.14
2019-01-02T01:34:06.825Z,99870.20
2019-01-02T01:39:50.584Z,99892.29
2019-01-02T01:45:15.651Z,99877.53
2019-01-02T01:55:49.137Z,99880.98
2019-01-02T02:06:04.198Z,99889.84
2019-01-02T02:11:10.186Z,99904.80
2019-01-02T02:16:33.481Z,99886.57
2019-01-02T02:21:56.789Z,99894.50
2019-01-02T02:27:01.141Z,99903.21
2019-01-02T02:32:05.393Z,99886.20
2019-01-02T02:37:09.832Z,99889.56
2019-01-02T02:47:43.262Z,99892.86
2019-01-02T02:52:49.611Z,99898.73
2019-01-02T02:57:53.909Z,99899.75
2019-01-02T03:03:17.271Z,99888.52
2019-01-02T03:08:22.898Z,99911.58
2019-01-02T03:13:29.289Z,99898.25
2019-01-02T03:18:54.304Z,99892.23
2019-01-02T03:24:00.285Z,99891.05
2019-01-02T03:34:14.117Z,99892.88
2019-01-02T03:39:18.446Z,99903.81
2019-01-02T03:49:32.569Z,99889.20
2019-01-02T03:59:47.389Z,99907.25
2019-01-02T04:10:01.689Z,99901.86
2019-01-02T04:15:45.405Z,99902.20
2019-01-02T04:21:08.750Z,99899.26
2019-01-02T04:26:13.024Z,99901.14
2019-01-02T04:31:17.577Z,99889.91
2019-01-02T04:47:01.268Z,99906.56
2019-01-02T04:52:05.858Z,99911.12
2019-01-02T04:57:22.171Z,99916.87
2019-01-02T05:02:26.403Z,99911.12
2019-01-02T05:07:30.742Z,99926.38
2019-01-02T05:12:34.967Z,99923.23
2019-01-02T05:23:07.966Z,99900.06
2019-01-02T05:28:31.252Z,99914.91
2019-01-02T05:33:35.567Z,99915.22
2019-01-02T05:38:39.801Z,99924.83
2019-01-02T05:44:03.102Z,99925.14
2019-01-02T05:54:17.136Z,99926.59
2019-01-02T06:04:50.471Z,99928.12
2019-01-02T06:09:54.711Z,99943.86
2019-01-02T06:20:28.277Z,99947.73
2019-01-02T06:25:32.501Z,99944.17
2019-01-02T06:30:36.769Z,99959.77
2019-01-02T06:35:41.001Z,99961.08
2019-01-02T06:40:45.229Z,99973.84
2019-01-02T06:45:49.615Z,99984.11
2019-01-02T06:50:54.089Z,99982.58
2019-01-02T06:56:17.306Z,99971.73
2019-01-02T07:01:33.584Z,99984.05
2019-01-02T07:17:15.895Z,100014.63
2019-01-02T07:27:30.228Z,100023.86
2019-01-02T07:32:34.606Z,100033.55
2019-01-02T07:38:17.050Z,100056.64
2019-01-02T07:43:59.718Z,100058.83
2019-01-02T07:49:42.020Z,100067.63
2019-01-02T07:55:24.382Z,100064.59
2019-01-02T08:00:50.834Z,100076.92
2019-01-02T08:06:33.157Z,100079.97
2019-01-02T08:12:15.434Z,100077.98
2019-01-02T08:17:57.723Z,100084.86
2019-01-02T08:29:34.361Z,100113.14
2019-01-02T08:35:16.642Z,100103.72
2019-01-02T08:40:58.927Z,100114.42
2019-01-02T08:46:41.206Z,100103.01
2019-01-02T08:52:09.331Z,100107.26
2019-01-02T08:57:51.631Z,100113.44
2019-01-02T09:03:20.742Z,100103.84
2019-01-02T09:08:36.991Z,100102.87
2019-01-02T09:14:19.311Z,100107.85
2019-01-02T09:20:01.635Z,100118.07
2019-01-02T09:25:43.963Z,100133.28
2019-01-02T09:31:26.279Z,100132.66
2019-01-02T09:37:08.835Z,100133.11
2019-01-02T09:42:51.126Z,100153.69
2019-01-02T09:48:18.994Z,100149.30
2019-01-02T09:54:01.329Z,100153.19
2019-01-02T10:05:38.674Z,100162.06
2019-01-02T10:11:21.052Z,100153.16
2019-01-02T10:17:03.594Z,100158.27
2019-01-02T10:22:45.904Z,100141.55
2019-01-02T10:28:28.193Z,100153.00
2019-01-02T10:34:10.555Z,100153.16
2019-01-02T10:39:52.935Z,100163.54
2019-01-02T10:45:35.299Z,100161.93
2019-01-02T10:51:17.844Z,100175.09
2019-01-02T10:57:00.140Z,100193.12
2019-01-02T11:02:42.427Z,100198.09
2019-01-02T11:08:24.754Z,100187.50
2019-01-02T11:14:07.225Z,100187.25
2019-01-02T11:25:38.354Z,100207.27
2019-01-02T11:31:20.694Z,100206.50
2019-01-02T11:37:03.378Z,100210.83
2019-01-02T11:48:03.539Z,100190.41
2019-01-02T11:58:17.669Z,100187.89
2019-01-02T12:03:21.962Z,100196.80
2019-01-02T12:08:45.108Z,100187.28
2019-01-02T12:19:37.263Z,100181.68
2019-01-02T12:36:00.820Z,100181.48
2019-01-02T12:41:05.177Z,100181.58
2019-01-02T12:46:28.490Z,100188.06
2019-01-02T12:51:52.146Z,100196.61
2019-01-02T12:57:15.421Z,100197.59
2019-01-02T13:02:57.706Z,100198.37
2019-01-02T13:08:40.049Z,100210.37
2019-01-02T13:14:22.632Z,100200.08
2019-01-02T13:19:38.254Z,100209.66
2019-01-02T13:25:20.587Z,100203.80
2019-01-02T13:31:02.970Z,100204.50
2019-01-02T13:36:45.257Z,100210.73
2019-01-02T13:42:29.139Z,100203.10
2019-01-02T13:48:13.150Z,100212.16
2019-01-02T13:53:36.486Z,100213.10
2019-01-02T13:58:40.777Z,100217.14
2019-01-02T14:09:35.389Z,100230.46
2019-01-02T14:14:58.700Z,100242.08
2019-01-02T14:20:15.340Z,100251.52
2019-01-02T14:25:19.653Z,100262.22
2019-01-02T14:30:23.916Z,100259.80
2019-01-02T14:35:28.431Z,100276.79
2019-01-02T14:40:32.740Z,100275.91
2019-01-02T14:45:56.146Z,100280.18
2019-01-02T14:56:29.466Z,100294.17
2019-01-02T15:28:01.244Z,100313.48
2019-01-02T15:33:05.525Z,100325.30
2019-01-02T15:38:28.844Z,100335.34
2019-01-02T15:43:52.145Z,100336.44
2019-01-02T15:48:56.888Z,100342.02
2019-01-02T15:54:20.112Z,100355.63
2019-01-02T15:59:43.414Z,100358.16
2019-01-02T16:10:16.445Z,100368.19
2019-01-02T16:21:09.473Z,100370.17
2019-01-02T16:36:34.065Z,100378.57
2019-01-02T16:52:37.441Z,100392.58
2019-01-02T16:57:42.060Z,100402.70
2019-01-02T17:02:46.294Z,100407.69
2019-01-02T17:07:50.852Z,100413.63
2019-01-02T17:12:55.119Z,100411.62
2019-01-02T17:23:08.813Z,100421.80
2019-01-02T17:28:13.076Z,100421.93
2019-01-02T17:33:17.315Z,100433.77
2019-01-02T17:38:21.544Z,100434.67
2019-01-02T17:43:44.775Z,100436.52
2019-01-02T17:48:49.010Z,100440.67
2019-01-02T17:59:22.231Z,100450.76
2019-01-02T18:04:26.480Z,100450.91
2019-01-02T18:09:49.779Z,100451.91
2019-01-02T18:15:13.163Z,100459.55
2019-01-02T18:25:46.159Z,100478.52
2019-01-02T18:41:29.910Z,100486.58
2019-01-02T18:46:53.530Z,100503.36
2019-01-02T18:51:57.784Z,100516.84
2019-01-02T19:02:11.326Z,100526.93
2019-01-02T19:07:15.567Z,100537.05
2019-01-02T19:12:38.874Z,100534.38
2019-01-02T19:17:43.122Z,100533.58
2019-01-02T19:28:16.439Z,100550.80
2019-01-02T19:33:39.705Z,100558.25
2019-01-02T19:44:33.354Z,100555.58
2019-01-02T19:49:37.624Z,100554.61
2019-01-02T19:55:00.938Z,100551.09
2019-01-02T20:00:45.021Z,100551.94
2019-01-02T20:05:49.294Z,100551.48
2019-01-02T20:37:59.178Z,100550.76
2019-01-02T20:48:32.928Z,100542.70
2019-01-02T21:04:54.021Z,100550.55
2019-01-02T21:10:17.336Z,100550.75
2019-01-02T21:15:21.577Z,100546.56
2019-01-02T21:25:54.909Z,100550.44
2019-01-02T21:31:18.183Z,100557.45
2019-01-02T21:36:22.439Z,100561.97
2019-01-02T21:41:41.029Z,100558.06
2019-01-02T21:46:45.295Z,100551.30
2019-01-02T21:51:49.591Z,100552.11
2019-01-02T21:56:54.172Z,100550.41
2019-01-02T22:01:58.415Z,100547.83
2019-01-02T22:07:21.728Z,100547.94
2019-01-02T22:12:45.201Z,100551.02
2019-01-02T22:17:49.543Z,100552.45
2019-01-02T22:23:13.198Z,100549.85
2019-01-02T22:28:17.822Z,100554.11
2019-01-02T22:33:22.148Z,100549.31
2019-01-02T22:38:45.464Z,100554.62
2019-01-02T22:43:49.775Z,100557.69
2019-01-02T22:59:51.753Z,100561.66
2019-01-02T23:05:15.213Z,100568.20
2019-01-02T23:10:38.760Z,100574.34
2019-01-02T23:16:20.995Z,100578.25
2019-01-02T23:22:03.752Z,100584.79
2019-01-02T23:27:27.169Z,100581.33
2019-01-02T23:33:09.432Z,100581.76
2019-01-02T23:38:32.598Z,100588.70
2019-01-02T23:44:15.175Z,100594.34
2019-01-02T23:49:50.217Z,100601.31
2019-01-02T23:55:33.879Z,100602.23
